sensor_id;sensor_type;location;lat;lon;timestamp;P1;durP1;ratioP1;P2;durP2;ratioP2
20154;SDS011;10238;49.556;10.956;2022-08-05T00:01:30;6.97;;;6.40;;
20154;SDS011;10238;49.556;10.956;2022-08-05T00:04:02;8.30;;;5.95;;
20154;SDS011;10238;49.556;10.956;2022-08-05T00:06:35;7.13;;;6.10;;
20154;SDS011;10238;49.556;10.956;2022-08-05T00:09:04;7.20;;;6.50;;
20154;SDS011;10238;49.556;10.956;2022-08-05T00:11:41;6.88;;;6.03;;
20154;SDS011;10238;49.556;10.956;2022-08-05T00:14:21;6.95;;;6.45;;
20154;SDS011;10238;49.556;10.956;2022-08-05T00:16:55;7.60;;;7.00;;
20154;SDS011;10238;49.556;10.956;2022-08-05T00:19:27;7.22;;;6.72;;
20154;SDS011;10238;49.556;10.956;2022-08-05T00:22:07;7.20;;;6.70;;
20154;SDS011;10238;49.556;10.956;2022-08-05T00:24:37;7.63;;;7.00;;
20154;SDS011;10238;49.556;10.956;2022-08-05T00:27:08;7.93;;;7.20;;
20154;SDS011;10238;49.556;10.956;2022-08-05T00:29:42;7.45;;;6.95;;
20154;SDS011;10238;49.556;10.956;2022-08-05T00:32:11;7.95;;;7.15;;
20154;SDS011;10238;49.556;10.956;2022-08-05T00:34:42;7.93;;;7.25;;
20154;SDS011;10238;49.556;10.956;2022-08-05T00:37:33;8.02;;;7.35;;
20154;SDS011;10238;49.556;10.956;2022-08-05T00:40:19;8.43;;;7.72;;
20154;SDS011;10238;49.556;10.956;2022-08-05T00:42:55;7.57;;;7.07;;
20154;SDS011;10238;49.556;10.956;2022-08-05T00:45:26;6.97;;;6.57;;
20154;SDS011;10238;49.556;10.956;2022-08-05T00:48:10;7.55;;;6.95;;
20154;SDS011;10238;49.556;10.956;2022-08-05T00:50:40;7.03;;;6.53;;
20154;SDS011;10238;49.556;10.956;2022-08-05T00:53:14;7.72;;;7.13;;
20154;SDS011;10238;49.556;10.956;2022-08-05T00:56:05;7.95;;;7.05;;
20154;SDS011;10238;49.556;10.956;2022-08-05T00:58:35;6.53;;;6.03;;
20154;SDS011;10238;49.556;10.956;2022-08-05T01:01:08;7.05;;;6.55;;
20154;SDS011;10238;49.556;10.956;2022-08-05T01:03:38;7.15;;;6.45;;
20154;SDS011;10238;49.556;10.956;2022-08-05T01:06:15;7.40;;;6.75;;
20154;SDS011;10238;49.556;10.956;2022-08-05T01:08:46;6.80;;;6.13;;
20154;SDS011;10238;49.556;10.956;2022-08-05T01:11:16;7.53;;;6.93;;
20154;SDS011;10238;49.556;10.956;2022-08-05T01:14:04;6.38;;;5.88;;
20154;SDS011;10238;49.556;10.956;2022-08-05T01:16:42;6.93;;;6.38;;
20154;SDS011;10238;49.556;10.956;2022-08-05T01:19:25;6.75;;;6.15;;
20154;SDS011;10238;49.556;10.956;2022-08-05T01:22:48;6.07;;;5.50;;
20154;SDS011;10238;49.556;10.956;2022-08-05T01:25:54;7.68;;;7.07;;
20154;SDS011;10238;49.556;10.956;2022-08-05T01:28:48;8.88;;;7.65;;
20154;SDS011;10238;49.556;10.956;2022-08-05T01:31:32;7.28;;;6.65;;
20154;SDS011;10238;49.556;10.956;2022-08-05T01:34:21;7.32;;;6.70;;
20154;SDS011;10238;49.556;10.956;2022-08-05T01:37:12;6.32;;;5.82;;
20154;SDS011;10238;49.556;10.956;2022-08-05T01:40:01;6.60;;;6.13;;
20154;SDS011;10238;49.556;10.956;2022-08-05T01:42:36;8.55;;;7.72;;
20154;SDS011;10238;49.556;10.956;2022-08-05T01:45:12;7.95;;;7.35;;
20154;SDS011;10238;49.556;10.956;2022-08-05T01:47:46;8.07;;;7.47;;
20154;SDS011;10238;49.556;10.956;2022-08-05T01:50:23;6.50;;;5.82;;
20154;SDS011;10238;49.556;10.956;2022-08-05T01:52:58;7.05;;;6.55;;
20154;SDS011;10238;49.556;10.956;2022-08-05T01:55:33;6.85;;;6.28;;
20154;SDS011;10238;49.556;10.956;2022-08-05T01:58:06;7.07;;;6.57;;
20154;SDS011;10238;49.556;10.956;2022-08-05T02:00:43;8.57;;;7.95;;
20154;SDS011;10238;49.556;10.956;2022-08-05T02:03:19;6.78;;;6.38;;
20154;SDS011;10238;49.556;10.956;2022-08-05T02:06:00;7.22;;;6.63;;
20154;SDS011;10238;49.556;10.956;2022-08-05T02:08:51;7.47;;;7.03;;
20154;SDS011;10238;49.556;10.956;2022-08-05T02:11:25;9.52;;;7.85;;
20154;SDS011;10238;49.556;10.956;2022-08-05T02:14:14;9.02;;;8.45;;
20154;SDS011;10238;49.556;10.956;2022-08-05T02:16:55;10.23;;;9.55;;
20154;SDS011;10238;49.556;10.956;2022-08-05T02:19:43;9.60;;;8.90;;
20154;SDS011;10238;49.556;10.956;2022-08-05T02:22:20;7.85;;;7.35;;
20154;SDS011;10238;49.556;10.956;2022-08-05T02:24:57;7.65;;;7.13;;
20154;SDS011;10238;49.556;10.956;2022-08-05T02:27:33;7.50;;;6.97;;
20154;SDS011;10238;49.556;10.956;2022-08-05T02:30:26;7.45;;;6.85;;
20154;SDS011;10238;49.556;10.956;2022-08-05T02:33:21;7.75;;;7.15;;
20154;SDS011;10238;49.556;10.956;2022-08-05T02:36:05;8.27;;;7.45;;
20154;SDS011;10238;49.556;10.956;2022-08-05T02:38:42;10.80;;;9.85;;
20154;SDS011;10238;49.556;10.956;2022-08-05T02:41:20;11.02;;;10.40;;
20154;SDS011;10238;49.556;10.956;2022-08-05T02:44:03;7.90;;;7.30;;
20154;SDS011;10238;49.556;10.956;2022-08-05T02:46:39;10.88;;;10.20;;
20154;SDS011;10238;49.556;10.956;2022-08-05T02:49:28;11.05;;;10.13;;
20154;SDS011;10238;49.556;10.956;2022-08-05T02:52:07;11.32;;;10.55;;
20154;SDS011;10238;49.556;10.956;2022-08-05T02:54:52;9.32;;;8.65;;
20154;SDS011;10238;49.556;10.956;2022-08-05T02:57:22;7.88;;;7.20;;
20154;SDS011;10238;49.556;10.956;2022-08-05T03:00:14;8.10;;;6.28;;
20154;SDS011;10238;49.556;10.956;2022-08-05T03:02:44;7.22;;;6.65;;
20154;SDS011;10238;49.556;10.956;2022-08-05T03:05:17;8.35;;;7.68;;
20154;SDS011;10238;49.556;10.956;2022-08-05T03:08:08;6.30;;;5.80;;
20154;SDS011;10238;49.556;10.956;2022-08-05T03:10:41;16.52;;;15.43;;
20154;SDS011;10238;49.556;10.956;2022-08-05T03:13:30;8.82;;;7.88;;
20154;SDS011;10238;49.556;10.956;2022-08-05T03:16:19;6.10;;;5.50;;
20154;SDS011;10238;49.556;10.956;2022-08-05T03:18:48;6.53;;;6.13;;
20154;SDS011;10238;49.556;10.956;2022-08-05T03:21:19;5.70;;;5.20;;
20154;SDS011;10238;49.556;10.956;2022-08-05T03:23:54;8.70;;;5.80;;
20154;SDS011;10238;49.556;10.956;2022-08-05T03:26:25;7.40;;;5.00;;
20154;SDS011;10238;49.556;10.956;2022-08-05T03:28:58;5.35;;;4.85;;
20154;SDS011;10238;49.556;10.956;2022-08-05T03:31:27;5.50;;;5.00;;
20154;SDS011;10238;49.556;10.956;2022-08-05T03:34:17;6.50;;;5.80;;
20154;SDS011;10238;49.556;10.956;2022-08-05T03:36:51;7.75;;;7.25;;
20154;SDS011;10238;49.556;10.956;2022-08-05T03:39:20;8.35;;;6.78;;
20154;SDS011;10238;49.556;10.956;2022-08-05T03:41:53;6.55;;;5.95;;
20154;SDS011;10238;49.556;10.956;2022-08-05T03:44:22;6.80;;;6.22;;
20154;SDS011;10238;49.556;10.956;2022-08-05T03:49:23;8.82;;;7.00;;
20154;SDS011;10238;49.556;10.956;2022-08-05T03:52:17;7.43;;;6.88;;
20154;SDS011;10238;49.556;10.956;2022-08-05T03:55:19;9.27;;;8.35;;
20154;SDS011;10238;49.556;10.956;2022-08-05T03:58:15;8.65;;;8.02;;
20154;SDS011;10238;49.556;10.956;2022-08-05T04:00:54;6.40;;;5.97;;
20154;SDS011;10238;49.556;10.956;2022-08-05T04:03:30;8.98;;;8.38;;
20154;SDS011;10238;49.556;10.956;2022-08-05T04:06:04;6.93;;;6.07;;
20154;SDS011;10238;49.556;10.956;2022-08-05T04:08:36;10.32;;;8.63;;
20154;SDS011;10238;49.556;10.956;2022-08-05T04:11:05;7.65;;;6.85;;
20154;SDS011;10238;49.556;10.956;2022-08-05T04:13:37;9.98;;;9.10;;
20154;SDS011;10238;49.556;10.956;2022-08-05T04:16:17;8.27;;;7.85;;
20154;SDS011;10238;49.556;10.956;2022-08-05T04:18:54;6.10;;;5.70;;
20154;SDS011;10238;49.556;10.956;2022-08-05T04:21:26;8.43;;;7.82;;
20154;SDS011;10238;49.556;10.956;2022-08-05T04:24:19;7.22;;;6.57;;
20154;SDS011;10238;49.556;10.956;2022-08-05T04:26:48;8.77;;;7.97;;
20154;SDS011;10238;49.556;10.956;2022-08-05T04:29:17;8.70;;;7.90;;
20154;SDS011;10238;49.556;10.956;2022-08-05T04:31:48;6.10;;;5.60;;
20154;SDS011;10238;49.556;10.956;2022-08-05T04:34:17;7.65;;;6.95;;
20154;SDS011;10238;49.556;10.956;2022-08-05T04:37:00;6.97;;;6.47;;
20154;SDS011;10238;49.556;10.956;2022-08-05T04:39:32;5.22;;;4.82;;
20154;SDS011;10238;49.556;10.956;2022-08-05T04:42:02;8.27;;;7.65;;
20154;SDS011;10238;49.556;10.956;2022-08-05T04:44:32;8.52;;;7.72;;
20154;SDS011;10238;49.556;10.956;2022-08-05T04:47:02;7.45;;;6.75;;
20154;SDS011;10238;49.556;10.956;2022-08-05T04:49:35;8.85;;;8.05;;
20154;SDS011;10238;49.556;10.956;2022-08-05T04:52:24;7.20;;;6.70;;
20154;SDS011;10238;49.556;10.956;2022-08-05T04:54:55;7.90;;;7.18;;
20154;SDS011;10238;49.556;10.956;2022-08-05T04:57:39;8.63;;;7.80;;
20154;SDS011;10238;49.556;10.956;2022-08-05T05:00:14;7.43;;;6.72;;
20154;SDS011;10238;49.556;10.956;2022-08-05T05:02:43;7.60;;;7.00;;
20154;SDS011;10238;49.556;10.956;2022-08-05T05:05:13;6.47;;;5.97;;
20154;SDS011;10238;49.556;10.956;2022-08-05T05:07:55;4.95;;;4.55;;
20154;SDS011;10238;49.556;10.956;2022-08-05T05:10:30;6.95;;;6.45;;
20154;SDS011;10238;49.556;10.956;2022-08-05T05:13:06;8.27;;;6.18;;
20154;SDS011;10238;49.556;10.956;2022-08-05T05:15:39;7.57;;;6.10;;
20154;SDS011;10238;49.556;10.956;2022-08-05T05:18:27;7.35;;;6.85;;
20154;SDS011;10238;49.556;10.956;2022-08-05T05:21:00;7.78;;;7.05;;
20154;SDS011;10238;49.556;10.956;2022-08-05T05:23:31;6.97;;;6.40;;
20154;SDS011;10238;49.556;10.956;2022-08-05T05:26:22;6.65;;;6.00;;
20154;SDS011;10238;49.556;10.956;2022-08-05T05:28:58;7.07;;;6.32;;
20154;SDS011;10238;49.556;10.956;2022-08-05T05:31:40;9.93;;;7.15;;
20154;SDS011;10238;49.556;10.956;2022-08-05T05:36:41;7.13;;;6.47;;
20154;SDS011;10238;49.556;10.956;2022-08-05T05:39:13;7.57;;;7.00;;
20154;SDS011;10238;49.556;10.956;2022-08-05T05:41:46;7.30;;;6.43;;
20154;SDS011;10238;49.556;10.956;2022-08-05T05:44:20;7.80;;;6.95;;
20154;SDS011;10238;49.556;10.956;2022-08-05T05:47:03;6.93;;;5.40;;
20154;SDS011;10238;49.556;10.956;2022-08-05T05:49:48;9.52;;;7.22;;
20154;SDS011;10238;49.556;10.956;2022-08-05T05:52:27;7.60;;;6.90;;
20154;SDS011;10238;49.556;10.956;2022-08-05T05:55:04;7.63;;;7.07;;
20154;SDS011;10238;49.556;10.956;2022-08-05T05:57:41;7.43;;;6.82;;
20154;SDS011;10238;49.556;10.956;2022-08-05T06:00:19;6.60;;;5.38;;
20154;SDS011;10238;49.556;10.956;2022-08-05T06:02:57;8.00;;;7.40;;
20154;SDS011;10238;49.556;10.956;2022-08-05T06:05:28;6.53;;;5.73;;
20154;SDS011;10238;49.556;10.956;2022-08-05T06:07:59;7.15;;;4.60;;
20154;SDS011;10238;49.556;10.956;2022-08-05T06:10:29;7.68;;;4.75;;
20154;SDS011;10238;49.556;10.956;2022-08-05T06:13:04;4.70;;;4.15;;
20154;SDS011;10238;49.556;10.956;2022-08-05T06:15:34;7.55;;;4.65;;
20154;SDS011;10238;49.556;10.956;2022-08-05T06:18:23;7.53;;;6.82;;
20154;SDS011;10238;49.556;10.956;2022-08-05T06:20:57;8.48;;;6.68;;
20154;SDS011;10238;49.556;10.956;2022-08-05T06:23:27;11.82;;;11.05;;
20154;SDS011;10238;49.556;10.956;2022-08-05T06:26:14;13.68;;;12.38;;
20154;SDS011;10238;49.556;10.956;2022-08-05T06:28:49;10.90;;;10.23;;
20154;SDS011;10238;49.556;10.956;2022-08-05T06:31:18;12.18;;;10.95;;
20154;SDS011;10238;49.556;10.956;2022-08-05T06:33:48;12.73;;;10.48;;
20154;SDS011;10238;49.556;10.956;2022-08-05T06:36:35;7.32;;;6.10;;
20154;SDS011;10238;49.556;10.956;2022-08-05T06:39:24;6.82;;;5.47;;
20154;SDS011;10238;49.556;10.956;2022-08-05T06:41:54;7.18;;;6.25;;
20154;SDS011;10238;49.556;10.956;2022-08-05T06:44:26;6.47;;;5.13;;
20154;SDS011;10238;49.556;10.956;2022-08-05T06:46:56;4.93;;;4.38;;
20154;SDS011;10238;49.556;10.956;2022-08-05T06:49:28;6.50;;;4.75;;
20154;SDS011;10238;49.556;10.956;2022-08-05T06:52:17;4.38;;;4.03;;
20154;SDS011;10238;49.556;10.956;2022-08-05T06:55:04;4.90;;;3.75;;
20154;SDS011;10238;49.556;10.956;2022-08-05T06:57:35;6.70;;;5.00;;
20154;SDS011;10238;49.556;10.956;2022-08-05T07:00:25;6.28;;;4.18;;
20154;SDS011;10238;49.556;10.956;2022-08-05T07:02:55;4.68;;;4.28;;
20154;SDS011;10238;49.556;10.956;2022-08-05T07:05:24;4.57;;;3.80;;
20154;SDS011;10238;49.556;10.956;2022-08-05T07:08:04;4.68;;;4.25;;
20154;SDS011;10238;49.556;10.956;2022-08-05T07:10:37;4.03;;;3.15;;
20154;SDS011;10238;49.556;10.956;2022-08-05T07:13:20;7.63;;;3.45;;
20154;SDS011;10238;49.556;10.956;2022-08-05T07:16:27;7.45;;;5.20;;
20154;SDS011;10238;49.556;10.956;2022-08-05T07:19:34;5.47;;;4.30;;
20154;SDS011;10238;49.556;10.956;2022-08-05T07:22:23;6.63;;;3.60;;
20154;SDS011;10238;49.556;10.956;2022-08-05T07:24:57;4.43;;;3.75;;
20154;SDS011;10238;49.556;10.956;2022-08-05T07:27:47;5.60;;;5.20;;
20154;SDS011;10238;49.556;10.956;2022-08-05T07:30:29;5.57;;;5.07;;
20154;SDS011;10238;49.556;10.956;2022-08-05T07:33:02;5.32;;;4.03;;
20154;SDS011;10238;49.556;10.956;2022-08-05T07:35:36;4.70;;;3.83;;
20154;SDS011;10238;49.556;10.956;2022-08-05T07:38:26;5.55;;;5.13;;
20154;SDS011;10238;49.556;10.956;2022-08-05T07:41:02;4.05;;;3.28;;
20154;SDS011;10238;49.556;10.956;2022-08-05T07:43:53;5.28;;;3.65;;
20154;SDS011;10238;49.556;10.956;2022-08-05T07:46:25;4.80;;;4.40;;
20154;SDS011;10238;49.556;10.956;2022-08-05T07:48:58;4.00;;;2.90;;
20154;SDS011;10238;49.556;10.956;2022-08-05T07:51:34;2.95;;;2.47;;
20154;SDS011;10238;49.556;10.956;2022-08-05T07:54:21;6.13;;;2.90;;
20154;SDS011;10238;49.556;10.956;2022-08-05T07:56:59;3.92;;;3.10;;
20154;SDS011;10238;49.556;10.956;2022-08-05T07:59:49;6.32;;;4.32;;
20154;SDS011;10238;49.556;10.956;2022-08-05T08:02:22;5.50;;;5.10;;
20154;SDS011;10238;49.556;10.956;2022-08-05T08:05:14;5.50;;;4.63;;
20154;SDS011;10238;49.556;10.956;2022-08-05T08:07:43;2.80;;;2.60;;
20154;SDS011;10238;49.556;10.956;2022-08-05T08:10:26;4.90;;;2.55;;
20154;SDS011;10238;49.556;10.956;2022-08-05T08:12:56;3.47;;;2.80;;
20154;SDS011;10238;49.556;10.956;2022-08-05T08:15:27;6.50;;;3.17;;
20154;SDS011;10238;49.556;10.956;2022-08-05T08:18:17;4.22;;;3.50;;
20154;SDS011;10238;49.556;10.956;2022-08-05T08:20:48;3.80;;;3.00;;
20154;SDS011;10238;49.556;10.956;2022-08-05T08:23:29;4.50;;;2.50;;
20154;SDS011;10238;49.556;10.956;2022-08-05T08:26:19;4.15;;;2.75;;
20154;SDS011;10238;49.556;10.956;2022-08-05T08:28:56;3.92;;;2.72;;
20154;SDS011;10238;49.556;10.956;2022-08-05T08:31:46;4.50;;;3.05;;
20154;SDS011;10238;49.556;10.956;2022-08-05T08:34:15;6.15;;;2.95;;
20154;SDS011;10238;49.556;10.956;2022-08-05T08:37:00;3.65;;;3.33;;
20154;SDS011;10238;49.556;10.956;2022-08-05T08:39:31;5.03;;;3.80;;
20154;SDS011;10238;49.556;10.956;2022-08-05T08:42:04;5.50;;;4.05;;
20154;SDS011;10238;49.556;10.956;2022-08-05T08:44:56;5.18;;;4.65;;
20154;SDS011;10238;49.556;10.956;2022-08-05T08:47:48;4.85;;;4.22;;
20154;SDS011;10238;49.556;10.956;2022-08-05T08:50:39;6.82;;;3.35;;
20154;SDS011;10238;49.556;10.956;2022-08-05T08:53:35;5.47;;;3.20;;
20154;SDS011;10238;49.556;10.956;2022-08-05T08:56:11;4.57;;;3.92;;
20154;SDS011;10238;49.556;10.956;2022-08-05T08:58:41;7.03;;;6.53;;
20154;SDS011;10238;49.556;10.956;2022-08-05T09:01:14;5.90;;;5.28;;
20154;SDS011;10238;49.556;10.956;2022-08-05T09:03:46;5.68;;;4.30;;
20154;SDS011;10238;49.556;10.956;2022-08-05T09:06:23;6.53;;;4.13;;
20154;SDS011;10238;49.556;10.956;2022-08-05T09:08:58;2.83;;;2.50;;
20154;SDS011;10238;49.556;10.956;2022-08-05T09:11:31;3.00;;;2.80;;
20154;SDS011;10238;49.556;10.956;2022-08-05T09:14:19;3.67;;;3.08;;
20154;SDS011;10238;49.556;10.956;2022-08-05T09:17:10;3.58;;;3.00;;
20154;SDS011;10238;49.556;10.956;2022-08-05T09:20:02;3.08;;;2.88;;
20154;SDS011;10238;49.556;10.956;2022-08-05T09:25:37;3.17;;;2.88;;
20154;SDS011;10238;49.556;10.956;2022-08-05T09:28:27;9.07;;;3.17;;
20154;SDS011;10238;49.556;10.956;2022-08-05T09:31:00;3.50;;;2.97;;
20154;SDS011;10238;49.556;10.956;2022-08-05T09:33:52;5.07;;;3.45;;
20154;SDS011;10238;49.556;10.956;2022-08-05T09:36:36;4.57;;;3.42;;
20154;SDS011;10238;49.556;10.956;2022-08-05T09:39:21;3.72;;;3.53;;
20154;SDS011;10238;49.556;10.956;2022-08-05T09:42:12;2.65;;;2.55;;
20154;SDS011;10238;49.556;10.956;2022-08-05T09:44:54;2.85;;;2.00;;
20154;SDS011;10238;49.556;10.956;2022-08-05T09:47:43;4.63;;;2.22;;
20154;SDS011;10238;49.556;10.956;2022-08-05T09:50:32;2.95;;;2.33;;
20154;SDS011;10238;49.556;10.956;2022-08-05T09:53:09;2.17;;;1.98;;
20154;SDS011;10238;49.556;10.956;2022-08-05T09:55:52;1.63;;;1.52;;
20154;SDS011;10238;49.556;10.956;2022-08-05T09:58:40;2.50;;;2.30;;
20154;SDS011;10238;49.556;10.956;2022-08-05T10:01:15;2.50;;;2.22;;
20154;SDS011;10238;49.556;10.956;2022-08-05T10:03:59;3.03;;;2.70;;
20154;SDS011;10238;49.556;10.956;2022-08-05T10:06:36;2.10;;;2.00;;
20154;SDS011;10238;49.556;10.956;2022-08-05T10:09:20;2.00;;;1.80;;
20154;SDS011;10238;49.556;10.956;2022-08-05T10:11:54;1.83;;;1.70;;
20154;SDS011;10238;49.556;10.956;2022-08-05T10:18:01;1.60;;;1.50;;
20154;SDS011;10238;49.556;10.956;2022-08-05T10:20:36;1.55;;;1.45;;
20154;SDS011;10238;49.556;10.956;2022-08-05T10:23:14;2.10;;;1.42;;
20154;SDS011;10238;49.556;10.956;2022-08-05T10:26:05;1.70;;;1.60;;
20154;SDS011;10238;49.556;10.956;2022-08-05T10:28:40;1.65;;;1.40;;
20154;SDS011;10238;49.556;10.956;2022-08-05T10:31:14;1.60;;;1.50;;
20154;SDS011;10238;49.556;10.956;2022-08-05T10:34:04;1.63;;;1.52;;
20154;SDS011;10238;49.556;10.956;2022-08-05T10:36:34;2.05;;;1.92;;
20154;SDS011;10238;49.556;10.956;2022-08-05T10:39:06;2.30;;;2.08;;
20154;SDS011;10238;49.556;10.956;2022-08-05T10:42:02;2.22;;;2.10;;
20154;SDS011;10238;49.556;10.956;2022-08-05T10:44:44;2.00;;;1.90;;
20154;SDS011;10238;49.556;10.956;2022-08-05T10:47:18;2.10;;;2.00;;
20154;SDS011;10238;49.556;10.956;2022-08-05T10:49:59;2.28;;;2.17;;
20154;SDS011;10238;49.556;10.956;2022-08-05T10:52:51;2.83;;;2.63;;
20154;SDS011;10238;49.556;10.956;2022-08-05T10:55:24;2.50;;;2.40;;
20154;SDS011;10238;49.556;10.956;2022-08-05T10:58:05;2.72;;;2.50;;
20154;SDS011;10238;49.556;10.956;2022-08-05T11:00:37;2.75;;;2.55;;
20154;SDS011;10238;49.556;10.956;2022-08-05T11:03:22;2.17;;;2.08;;
20154;SDS011;10238;49.556;10.956;2022-08-05T11:06:03;2.50;;;2.20;;
20154;SDS011;10238;49.556;10.956;2022-08-05T11:08:34;3.38;;;2.05;;
20154;SDS011;10238;49.556;10.956;2022-08-05T11:14:22;2.40;;;2.25;;
20154;SDS011;10238;49.556;10.956;2022-08-05T11:20:33;2.70;;;2.50;;
20154;SDS011;10238;49.556;10.956;2022-08-05T11:26:20;2.72;;;2.55;;
20154;SDS011;10238;49.556;10.956;2022-08-05T11:28:59;2.92;;;2.72;;
20154;SDS011;10238;49.556;10.956;2022-08-05T11:31:40;2.63;;;2.42;;
20154;SDS011;10238;49.556;10.956;2022-08-05T11:34:33;2.70;;;2.50;;
20154;SDS011;10238;49.556;10.956;2022-08-05T11:37:06;2.05;;;1.83;;
20154;SDS011;10238;49.556;10.956;2022-08-05T11:39:55;2.30;;;2.10;;
20154;SDS011;10238;49.556;10.956;2022-08-05T11:42:30;2.28;;;2.17;;
20154;SDS011;10238;49.556;10.956;2022-08-05T11:45:06;2.78;;;2.17;;
20154;SDS011;10238;49.556;10.956;2022-08-05T11:47:52;2.05;;;1.95;;
20154;SDS011;10238;49.556;10.956;2022-08-05T11:50:22;3.97;;;2.78;;
20154;SDS011;10238;49.556;10.956;2022-08-05T11:52:53;2.30;;;2.20;;
20154;SDS011;10238;49.556;10.956;2022-08-05T11:55:24;4.00;;;2.50;;
20154;SDS011;10238;49.556;10.956;2022-08-05T11:58:02;3.30;;;3.00;;
20154;SDS011;10238;49.556;10.956;2022-08-05T12:00:37;2.90;;;2.70;;
20154;SDS011;10238;49.556;10.956;2022-08-05T12:03:18;4.47;;;3.40;;
20154;SDS011;10238;49.556;10.956;2022-08-05T12:05:58;3.95;;;3.13;;
20154;SDS011;10238;49.556;10.956;2022-08-05T12:08:33;4.63;;;2.55;;
20154;SDS011;10238;49.556;10.956;2022-08-05T12:11:17;3.50;;;3.20;;
20154;SDS011;10238;49.556;10.956;2022-08-05T12:13:54;3.33;;;3.13;;
20154;SDS011;10238;49.556;10.956;2022-08-05T12:16:25;3.28;;;2.63;;
20154;SDS011;10238;49.556;10.956;2022-08-05T12:18:57;3.65;;;2.38;;
20154;SDS011;10238;49.556;10.956;2022-08-05T12:21:28;3.33;;;2.97;;
20154;SDS011;10238;49.556;10.956;2022-08-05T12:24:07;3.60;;;3.40;;
20154;SDS011;10238;49.556;10.956;2022-08-05T12:26:38;3.10;;;2.90;;
20154;SDS011;10238;49.556;10.956;2022-08-05T12:29:10;3.63;;;3.33;;
20154;SDS011;10238;49.556;10.956;2022-08-05T12:31:48;2.53;;;2.42;;
20154;SDS011;10238;49.556;10.956;2022-08-05T12:34:20;4.30;;;4.00;;
20154;SDS011;10238;49.556;10.956;2022-08-05T12:36:54;2.60;;;2.40;;
20154;SDS011;10238;49.556;10.956;2022-08-05T12:39:26;3.40;;;3.15;;
20154;SDS011;10238;49.556;10.956;2022-08-05T12:42:06;4.30;;;4.10;;
20154;SDS011;10238;49.556;10.956;2022-08-05T12:44:41;3.58;;;3.38;;
20154;SDS011;10238;49.556;10.956;2022-08-05T12:47:13;4.80;;;4.40;;
20154;SDS011;10238;49.556;10.956;2022-08-05T12:49:56;2.42;;;1.80;;
20154;SDS011;10238;49.556;10.956;2022-08-05T12:52:32;2.45;;;1.88;;
20154;SDS011;10238;49.556;10.956;2022-08-05T12:55:18;4.30;;;2.13;;
20154;SDS011;10238;49.556;10.956;2022-08-05T12:57:52;1.73;;;1.63;;
20154;SDS011;10238;49.556;10.956;2022-08-05T13:03:35;1.93;;;1.73;;
20154;SDS011;10238;49.556;10.956;2022-08-05T13:06:12;2.22;;;1.80;;
20154;SDS011;10238;49.556;10.956;2022-08-05T13:08:44;1.80;;;1.70;;
20154;SDS011;10238;49.556;10.956;2022-08-05T13:11:20;2.15;;;1.80;;
20154;SDS011;10238;49.556;10.956;2022-08-05T13:14:17;1.88;;;1.77;;
20154;SDS011;10238;49.556;10.956;2022-08-05T13:17:02;2.17;;;1.60;;
20154;SDS011;10238;49.556;10.956;2022-08-05T13:19:36;2.90;;;2.08;;
20154;SDS011;10238;49.556;10.956;2022-08-05T13:22:19;2.97;;;1.83;;
20154;SDS011;10238;49.556;10.956;2022-08-05T13:24:56;1.95;;;1.80;;
20154;SDS011;10238;49.556;10.956;2022-08-05T13:27:33;1.98;;;1.88;;
20154;SDS011;10238;49.556;10.956;2022-08-05T13:30:06;2.63;;;1.88;;
20154;SDS011;10238;49.556;10.956;2022-08-05T13:32:56;2.13;;;1.80;;
20154;SDS011;10238;49.556;10.956;2022-08-05T13:35:27;1.85;;;1.75;;
20154;SDS011;10238;49.556;10.956;2022-08-05T13:38:17;2.28;;;2.08;;
20154;SDS011;10238;49.556;10.956;2022-08-05T13:41:00;2.30;;;2.10;;
20154;SDS011;10238;49.556;10.956;2022-08-05T13:43:31;2.23;;;2.03;;
20154;SDS011;10238;49.556;10.956;2022-08-05T13:46:20;3.60;;;2.07;;
20154;SDS011;10238;49.556;10.956;2022-08-05T13:49:10;2.28;;;2.08;;
20154;SDS011;10238;49.556;10.956;2022-08-05T13:51:39;2.88;;;2.15;;
20154;SDS011;10238;49.556;10.956;2022-08-05T13:54:13;2.25;;;2.15;;
20154;SDS011;10238;49.556;10.956;2022-08-05T13:56:50;1.95;;;1.85;;
20154;SDS011;10238;49.556;10.956;2022-08-05T13:59:22;2.85;;;1.90;;
20154;SDS011;10238;49.556;10.956;2022-08-05T14:01:53;2.10;;;2.00;;
20154;SDS011;10238;49.556;10.956;2022-08-05T14:04:27;1.95;;;1.85;;
20154;SDS011;10238;49.556;10.956;2022-08-05T14:07:18;3.28;;;1.88;;
20154;SDS011;10238;49.556;10.956;2022-08-05T14:10:09;3.05;;;1.73;;
20154;SDS011;10238;49.556;10.956;2022-08-05T14:12:45;4.93;;;2.10;;
20154;SDS011;10238;49.556;10.956;2022-08-05T14:15:21;2.20;;;2.00;;
20154;SDS011;10238;49.556;10.956;2022-08-05T14:20:44;2.20;;;1.90;;
20154;SDS011;10238;49.556;10.956;2022-08-05T14:23:15;2.30;;;2.10;;
20154;SDS011;10238;49.556;10.956;2022-08-05T14:25:52;2.00;;;1.70;;
20154;SDS011;10238;49.556;10.956;2022-08-05T14:28:25;2.00;;;1.90;;
20154;SDS011;10238;49.556;10.956;2022-08-05T14:30:57;3.13;;;1.83;;
20154;SDS011;10238;49.556;10.956;2022-08-05T14:33:27;1.73;;;1.63;;
20154;SDS011;10238;49.556;10.956;2022-08-05T14:36:19;4.70;;;2.10;;
20154;SDS011;10238;49.556;10.956;2022-08-05T14:38:52;1.70;;;1.60;;
20154;SDS011;10238;49.556;10.956;2022-08-05T14:41:21;2.90;;;1.80;;
20154;SDS011;10238;49.556;10.956;2022-08-05T14:43:50;1.75;;;1.60;;
20154;SDS011;10238;49.556;10.956;2022-08-05T14:46:33;3.38;;;2.10;;
20154;SDS011;10238;49.556;10.956;2022-08-05T14:49:02;2.53;;;2.10;;
20154;SDS011;10238;49.556;10.956;2022-08-05T14:51:34;3.25;;;2.85;;
20154;SDS011;10238;49.556;10.956;2022-08-05T14:54:09;2.70;;;2.50;;
20154;SDS011;10238;49.556;10.956;2022-08-05T14:56:56;5.05;;;2.40;;
20154;SDS011;10238;49.556;10.956;2022-08-05T14:59:35;2.45;;;2.25;;
20154;SDS011;10238;49.556;10.956;2022-08-05T15:02:06;3.35;;;2.42;;
20154;SDS011;10238;49.556;10.956;2022-08-05T15:04:41;3.08;;;2.47;;
20154;SDS011;10238;49.556;10.956;2022-08-05T15:07:15;2.47;;;2.28;;
20154;SDS011;10238;49.556;10.956;2022-08-05T15:10:05;8.80;;;2.78;;
20154;SDS011;10238;49.556;10.956;2022-08-05T15:12:36;3.53;;;1.88;;
20154;SDS011;10238;49.556;10.956;2022-08-05T15:15:26;2.05;;;1.73;;
20154;SDS011;10238;49.556;10.956;2022-08-05T15:18:18;2.53;;;1.65;;
20154;SDS011;10238;49.556;10.956;2022-08-05T15:20:47;2.00;;;1.75;;
20154;SDS011;10238;49.556;10.956;2022-08-05T15:23:16;3.67;;;1.88;;
20154;SDS011;10238;49.556;10.956;2022-08-05T15:25:46;4.57;;;1.70;;
20154;SDS011;10238;49.556;10.956;2022-08-05T15:28:19;3.83;;;2.10;;
20154;SDS011;10238;49.556;10.956;2022-08-05T15:30:53;2.20;;;2.00;;
20154;SDS011;10238;49.556;10.956;2022-08-05T15:33:24;2.30;;;2.10;;
20154;SDS011;10238;49.556;10.956;2022-08-05T15:38:51;2.45;;;1.90;;
20154;SDS011;10238;49.556;10.956;2022-08-05T15:41:40;3.15;;;2.10;;
20154;SDS011;10238;49.556;10.956;2022-08-05T15:44:25;2.53;;;2.30;;
20154;SDS011;10238;49.556;10.956;2022-08-05T15:46:56;2.90;;;2.60;;
20154;SDS011;10238;49.556;10.956;2022-08-05T15:49:31;2.28;;;2.08;;
20154;SDS011;10238;49.556;10.956;2022-08-05T15:52:20;2.78;;;2.58;;
20154;SDS011;10238;49.556;10.956;2022-08-05T15:55:10;2.33;;;2.13;;
20154;SDS011;10238;49.556;10.956;2022-08-05T15:57:42;5.57;;;2.40;;
20154;SDS011;10238;49.556;10.956;2022-08-05T16:00:14;3.08;;;2.88;;
20154;SDS011;10238;49.556;10.956;2022-08-05T16:03:04;3.10;;;2.90;;
20154;SDS011;10238;49.556;10.956;2022-08-05T16:05:35;3.58;;;3.28;;
20154;SDS011;10238;49.556;10.956;2022-08-05T16:08:07;2.70;;;2.50;;
20154;SDS011;10238;49.556;10.956;2022-08-05T16:10:41;2.70;;;2.50;;